Řízení letového provozu České republiky
Letiste: LKTB Aktualizace: 18.12.2018 17:02:06  UTC
 METAR LKTB 18.12. 17:00 ...
METAR LKTB 181700Z 10004KT 5000 BR OVC020 00/M01 Q1027 NOSIG RMK REG QNH 1021=
 TAF LKTB 18.12. 17:00 ...
TAF LKTB 181700Z 1818/2000 VRB02KT 5000 BR BKN020      BECMG 1818/1821 3000 BR BKN010      TEMPO 1821/1910 1200 BR BKN005      PROB30 TEMPO 1821/1908 0500 FZFG BKN002      BECMG 1910/1912 14012KT 6000 BKN020      TEMPO 1912/1918 14012G24KT=